Palo Alto, CA (94301)

9:23 PM PDT on August 23, 2016 (GMT -0700)
McPhail Data Systems | | Change Station

Elev 36 ft 37.45 °N, 122.14 °W | Updated 22 seconds ago

Clear
Clear
62.2 °F
Feels Like 62.2 °F
N
0.0
Wind Variable Wind from SSW

Today
High -- | Low -- °F
--% Chance of Precip.
Yesterday
High -- | Low -- °F
Precip. -- in
Pressure 30.07 in
Visibility 10.0 miles
Clouds Clear
Dew Point 57 °F
Humidity 83%
Rainfall 0.00 in
Snow Depth Not available.
6:31 AM 7:49 PM
Waning Gibbous, 61% visible
METAR KPAO 240347Z 34009KT 10SM SKC 18/16 A3007 RMK LAST
Pressure 30.07 in
Visibility 10.0 miles
Clouds Clear
Dew Point 57 °F
Humidity 83%
Rainfall 0.00 in
Snow Depth Not available.
6:31 AM 7:49 PM
Waning Gibbous, 61% visible
METAR KPAO 240347Z 34009KT 10SM SKC 18/16 A3007 RMK LAST

10-Day Weather Forecast

Almanac

Astronomy

Aug. 23, 2016 Rise Set
Actual Time
Civil Twilight
Nautical Twilight
Astronomical Twilight
Moon
Length of Visible Light
Length of Day
Tomorrow will be .
, % of the Moon is Illuminated

Today's Extremes

State Highs State Lows

Community

WunderPhotos

Upload Photos

1,934,554 photos uploaded!

WunderBlog® & News

Nearby

Air Quality

  Air Quality AQ Index Pollutant
Not available.

Snow Depth

Station Depth Elevation

Earthquake Activity

City Distance Mag. Time & Date
Minimum magnitude displayed is 2.5.

Coastal Water Temperatures

Place Temperature

Stations

Nearby Weather Stations

Station Location Temp. Windchill Dew Point Humidity Wind Precip. Elev Updated Type
                   

Watches & Warnings

There are currently no watches in effect.